Flight Track Log - Related Links

Times and Time Zones

All times are in EDT time to prevent confusion due to time zone crossing. See the N682RW flight status page for this flight to view local times or setup timezone preferences in your user account.

Time Position Orientation Groundspeed Altitude Reporting Facility
EDT Latitude Longitude Course Direction KTS MPH feet Rate Location/Type
Wed 10:12:51 PM 29.6772 -95.2431 North 205 236 1,500  Level Houston Center
Wed 10:13:40 PM 29.7253 -95.2397 North 257 296 3,800 2,292 Climbing Houston Center
Wed 10:14:20 PM 29.7389 -95.2797 291° West 263 303 4,900 2,000 Climbing Houston Center
Wed 10:14:40 PM 29.7417 -95.3267 274° West 279 321 5,800 2,754 Climbing Houston Center
Wed 10:15:21 PM 29.7531 -95.3675 288° West 281 323 7,700 3,059 Climbing Houston Center
Wed 10:16:22 PM 29.7847 -95.4706 290° West 285 328 11,000 2,951 Climbing Houston Center
Wed 10:17:23 PM 29.8058 -95.5769 283° West 337 388 13,700 2,876 Climbing Houston Center
Wed 10:18:23 PM 29.8258 -95.6858 282° West 347 399 16,800 2,678 Climbing Houston Center
Wed 10:19:24 PM 29.8319 -95.8003 274° West 362 417 19,100 2,262 Climbing Houston Center
Wed 10:20:25 PM 29.8192 -95.9214 263° West 383 441 21,400 1,967 Climbing Houston Center
Wed 10:21:26 PM 29.8106 -96.0397 265° West 386 444 23,100 1,279 Climbing Houston Center
Wed 10:22:27 PM 29.8006 -96.1672 265° West 397 457 24,000 1,131 Climbing Houston Center
Wed 10:23:28 PM 29.7900 -96.2958 265° West 404 465 25,400 1,328 Climbing Houston Center
Wed 10:24:29 PM 29.7800 -96.4269 265° West 412 474 26,700 2,066 Climbing Houston Center
Wed 10:25:30 PM 29.7675 -96.5878 265° West 421 484 29,600 2,361 Climbing Houston Center
Wed 10:26:31 PM 29.7561 -96.7142 264° West 405 466 31,500 1,279 Climbing Houston Center
Wed 10:27:32 PM 29.7464 -96.8394 265° West 398 458 32,200 639 Climbing Houston Center
Wed 10:28:33 PM 29.7353 -96.9717 265° West 415 478 32,800 738 Climbing Houston Center
Wed 10:29:34 PM 29.7242 -97.1081 265° West 430 495 33,700 1,033 Climbing Houston Center
Wed 10:30:35 PM 29.7131 -97.2444 265° West 433 498 34,900 942 Climbing Houston Center
Wed 10:31:35 PM 29.7000 -97.3783 264° West 425 489 35,600 545 Climbing Houston Center
Wed 10:32:36 PM 29.6883 -97.5150 264° West 432 497 36,000 197 Climbing Houston Center
Wed 10:33:37 PM 29.6772 -97.6517 265° West 431 496 36,000  Level Houston Center
Wed 10:34:38 PM 29.6619 -97.8131 264° West 425 489 36,000  Level Houston Center
Wed 10:35:39 PM 29.6492 -97.9494 264° West 424 488 36,000  Level Houston Center
Wed 10:36:40 PM 29.6367 -98.0842 264° West 424 488 36,000  Level Houston Center
Wed 10:37:41 PM 29.6025 -98.2153 253° West 430 495 36,000  Level Houston Center
Wed 10:38:42 PM 29.5686 -98.3461 253° West 428 493 36,000  Level Houston Center
Wed 10:39:43 PM 29.5353 -98.4769 254° West 437 503 36,000  Level Houston Center
Wed 10:40:44 PM 29.4997 -98.6169 254° West 431 496 36,000  Level Houston Center
Wed 10:41:45 PM 29.4633 -98.7614 254° West 436 502 36,000  Level Houston Center
Wed 10:42:46 PM 29.4281 -98.8956 253° West 440 506 36,000  Level Houston Center
Wed 10:43:47 PM 29.3919 -99.0306 253° West 443 510 36,000  Level Houston Center
Wed 10:44:48 PM 29.3553 -99.1650 253° West 444 511 36,000  Level Houston Center
Wed 10:45:49 PM 29.3183 -99.3008 253° West 447 514 36,000  Level Houston Center
Wed 10:46:50 PM 29.2811 -99.4422 253° West 445 512 36,000  Level Houston Center
Wed 10:47:50 PM 29.2456 -99.5786 253° West 447 514 36,000  Level Houston Center
Wed 10:48:51 PM 29.2083 -99.7133 252° West 446 513 36,000  Level Houston Center
Wed 10:49:52 PM 29.1728 -99.8464 253° West 442 509 36,000  Level Houston Center
Wed 10:50:53 PM 29.1350 -99.9794 252° West 440 506 36,000  Level Houston Center
Wed 10:51:54 PM 29.1158 -100.1147 261° West 433 498 36,000  Level Houston Center
Wed 10:52:55 PM 29.1253 -100.2494 275° West 421 484 36,000  Level Houston Center
Wed 10:53:56 PM 29.1717 -100.3744 293° West 435 501 36,000  Level Houston Center
Wed 10:54:57 PM 29.2325 -100.4928 301° West 430 495 36,000  Level Houston Center
Wed 10:55:58 PM 29.2892 -100.6175 298° West 439 505 36,000  Level Houston Center
Wed 10:56:58 PM 29.3464 -100.7411 298° West 440 506 36,000  Level Houston Center
Wed 10:58:00 PM 29.4047 -100.8664 298° West 444 511 36,000  Level Houston Center
Wed 10:59:01 PM 29.4625 -100.9869 299° West 433 498 36,000  Level Houston Center
Wed 11:00:02 PM 29.5183 -101.1072 298° West 426 490 36,000  Level Houston Center
Wed 11:01:03 PM 29.5750 -101.2239 299° West 419 482 36,000  Level Houston Center
Wed 11:02:04 PM 29.6308 -101.3419 299° West 420 483 36,000  Level Houston Center
Wed 11:03:05 PM 29.6883 -101.4661 298° West 439 505 36,000  Level Houston Center
Wed 11:04:05 PM 29.7592 -101.6178 298° West 447 514 36,000  Level Houston Center
Wed 11:05:06 PM 29.8167 -101.7431 298° West 445 512 36,000  Level Houston Center
Wed 11:06:07 PM 29.8764 -101.8703 298° West 449 517 36,000  Level Houston Center
Wed 11:07:08 PM 29.9286 -101.9822 298° West 447 514 36,000 -49 Level Albuquerque Center
Wed 11:08:10 PM 29.9867 -102.1058 298° West 442 509 35,900  Descending Albuquerque Center
Wed 11:09:11 PM 30.0556 -102.2539 298° West 437 503 36,000 49 Climbing Albuquerque Center
Wed 11:10:12 PM 30.1128 -102.3781 298° West 438 504 36,000  Level Albuquerque Center
Wed 11:11:14 PM 30.1694 -102.5028 298° West 437 503 36,000  Level Albuquerque Center
Wed 11:12:15 PM 30.2281 -102.6308 298° West 444 511 36,000  Level Albuquerque Center
Wed 11:13:17 PM 30.2858 -102.7561 298° West 442 509 36,000  Level Albuquerque Center
Wed 11:14:18 PM 30.3422 -102.8811 298° West 439 505 36,000  Level Albuquerque Center
Wed 11:15:20 PM 30.4003 -103.0083 298° West 443 510 36,000  Level Albuquerque Center
Wed 11:16:21 PM 30.4564 -103.1328 298° West 438 504 36,000  Level Albuquerque Center
Wed 11:17:22 PM 30.5131 -103.2583 298° West 437 503 36,000  Level Albuquerque Center
Wed 11:18:24 PM 30.5689 -103.3839 297° West 438 504 36,000  Level Albuquerque Center
Wed 11:19:25 PM 30.6367 -103.5339 298° West 437 503 36,000  Level Albuquerque Center
Wed 11:20:27 PM 30.6919 -103.6597 297° West 438 504 36,000  Level Albuquerque Center
Wed 11:21:28 PM 30.7478 -103.7833 298° West 433 498 36,000  Level Albuquerque Center
Wed 11:22:30 PM 30.7964 -103.8933 297° West 431 496 36,000  Level Albuquerque Center
Wed 11:23:31 PM 30.8494 -104.0156 297° West 426 490 36,000  Level Albuquerque Center
Wed 11:24:33 PM 30.9144 -104.1631 297° West 428 493 36,000  Level Albuquerque Center
Wed 11:25:34 PM 30.9689 -104.2886 297° West 433 498 36,000  Level Albuquerque Center
Wed 11:26:36 PM 31.0244 -104.4150 297° West 438 504 36,000  Level Albuquerque Center
Wed 11:27:37 PM 31.0797 -104.5422 297° West 442 509 36,000  Level Albuquerque Center
Wed 11:28:39 PM 31.1347 -104.6686 297° West 440 506 36,000  Level Albuquerque Center
Wed 11:29:40 PM 31.1883 -104.7931 297° West 437 503 36,000  Level Albuquerque Center
Wed 11:30:42 PM 31.2519 -104.9406 297° West 430 495 36,000  Level Albuquerque Center
Wed 11:31:43 PM 31.3047 -105.0647 296° West 431 496 36,000  Level Albuquerque Center
Wed 11:32:45 PM 31.3572 -105.1883 296° West 430 495 36,000  Level Albuquerque Center
Wed 11:33:46 PM 31.4081 -105.3061 297° West 415 478 36,000  Level Albuquerque Center
Wed 11:34:48 PM 31.4603 -105.4308 296° West 425 489 36,000  Level Albuquerque Center
Wed 11:35:49 PM 31.5114 -105.5522 296° West 419 482 36,000  Level Albuquerque Center
Wed 11:36:50 PM 31.5622 -105.6744 296° West 418 481 36,000  Level Albuquerque Center
Wed 11:37:52 PM 31.6233 -105.8219 296° West 421 484 36,000  Level Albuquerque Center
Wed 11:38:53 PM 31.6744 -105.9431 296° West 416 479 36,000  Level Albuquerque Center
Wed 11:39:55 PM 31.7250 -106.0642 296° West 415 478 36,000  Level Albuquerque Center
Wed 11:40:56 PM 31.7758 -106.1836 297° West 411 473 36,000  Level Albuquerque Center
Wed 11:41:58 PM 31.8244 -106.3056 295° West 422 486 36,000  Level Albuquerque Center
Wed 11:42:59 PM 31.8600 -106.4306 289° West 408 470 36,000  Level Albuquerque Center
Wed 11:44:01 PM 31.8992 -106.5769 288° West 406 467 36,000  Level Albuquerque Center
Wed 11:45:02 PM 31.9347 -106.7033 288° West 406 467 36,000  Level Albuquerque Center
Wed 11:46:03 PM 31.9700 -106.8283 288° West 404 465 36,000  Level Albuquerque Center
Wed 11:47:05 PM 32.0050 -106.9567 288° West 408 470 36,000  Level Albuquerque Center
Wed 11:48:06 PM 32.0392 -107.0831 288° West 405 466 36,000  Level Albuquerque Center
Wed 11:49:07 PM 32.0736 -107.2106 288° West 405 466 36,000  Level Albuquerque Center
Wed 11:50:09 PM 32.1075 -107.3378 287° West 405 466 36,000  Level Albuquerque Center
Wed 11:51:10 PM 32.1422 -107.4667 288° West 408 470 36,000  Level Albuquerque Center
Wed 11:52:11 PM 32.1764 -107.5944 288° West 406 467 36,000  Level Albuquerque Center
Wed 11:53:13 PM 32.2103 -107.7219 287° West 407 468 36,000  Level Albuquerque Center
Wed 11:54:14 PM 32.2442 -107.8508 287° West 409 471 36,000  Level Albuquerque Center
Wed 11:55:15 PM 32.2797 -107.9792 288° West 410 472 36,000  Level Albuquerque Center
Wed 11:56:17 PM 32.3211 -108.1375 287° West 416 479 36,000  Level Albuquerque Center
Wed 11:57:18 PM 32.3547 -108.2675 287° West 415 478 36,000  Level Albuquerque Center
Wed 11:58:19 PM 32.3889 -108.3992 287° West 417 480 36,000  Level Albuquerque Center
Wed 11:59:21 PM 32.4247 -108.5339 288° West 415 478 36,000  Level Albuquerque Center
Thu 12:00:24 AM 32.4578 -108.6631 287° West 413 475 36,000  Level Albuquerque Center
Thu 12:01:25 AM 32.4911 -108.7928 287° West 413 475 36,000  Level Albuquerque Center
Thu 12:02:26 AM 32.5250 -108.9244 287° West 416 479 36,000  Level Albuquerque Center
Thu 12:03:27 AM 32.5575 -109.0553 286° West 416 479 36,000  Level Albuquerque Center
Thu 12:04:28 AM 32.5914 -109.1864 287° West 415 478 36,000  Level Albuquerque Center
Thu 12:05:29 AM 32.6239 -109.3158 287° West 412 474 36,000  Level Albuquerque Center
Thu 12:06:30 AM 32.6569 -109.4461 287° West 412 474 36,000  Level Albuquerque Center
Thu 12:07:32 AM 32.6947 -109.6008 286° West 409 471 36,000  Level Albuquerque Center
Thu 12:08:33 AM 32.7283 -109.7328 287° West 415 478 36,000  Level Albuquerque Center
Thu 12:09:33 AM 32.7608 -109.8633 287° West 415 478 36,000  Level Albuquerque Center
Thu 12:10:35 AM 32.7939 -109.9939 287° West 415 478 36,000  Level Albuquerque Center
Thu 12:11:35 AM 32.8283 -110.1242 287° West 416 479 36,000  Level Albuquerque Center
Thu 12:12:36 AM 32.8594 -110.2539 286° West 411 473 36,000  Level Albuquerque Center
Thu 12:13:37 AM 32.8911 -110.3853 286° West 415 478 36,000  Level Albuquerque Center
Thu 12:14:38 AM 32.9233 -110.5158 286° West 414 476 36,000  Level Albuquerque Center
Thu 12:15:39 AM 32.9611 -110.6706 286° West 413 475 36,000  Level Albuquerque Center
Thu 12:16:40 AM 32.9919 -110.8028 286° West 413 475 36,000  Level Albuquerque Center
Thu 12:17:41 AM 33.0231 -110.9344 286° West 413 475 36,000  Level Albuquerque Center
Thu 12:18:42 AM 33.0547 -111.0653 286° West 411 473 36,000  Level Albuquerque Center
Thu 12:19:43 AM 33.0856 -111.1975 286° West 414 476 36,000  Level Albuquerque Center
Thu 12:20:44 AM 33.1167 -111.3292 286° West 414 476 36,000  Level Albuquerque Center
Thu 12:21:45 AM 33.1469 -111.4622 285° West 414 476 36,000  Level Albuquerque Center
Thu 12:22:46 AM 33.1775 -111.5958 285° West 416 479 36,000  Level Albuquerque Center
Thu 12:23:47 AM 33.2081 -111.7294 285° West 417 480 36,000  Level Albuquerque Center
Thu 12:24:47 AM 33.2394 -111.8631 286° West 417 480 36,000  Level Albuquerque Center
Thu 12:25:48 AM 33.2692 -111.9950 285° West 413 475 36,000  Level Albuquerque Center
Thu 12:26:49 AM 33.2989 -112.1267 285° West 410 472 36,000  Level Albuquerque Center
Thu 12:27:50 AM 33.3286 -112.2606 285° West 413 475 36,000  Level Albuquerque Center
Thu 12:28:51 AM 33.3589 -112.3947 285° West 416 479 36,000  Level Albuquerque Center
Thu 12:29:52 AM 33.3883 -112.5281 285° West 416 479 36,000  Level Albuquerque Center
Thu 12:30:53 AM 33.4183 -112.6617 285° West 416 479 36,000  Level Albuquerque Center
Thu 12:31:54 AM 33.4528 -112.8217 285° West 417 480 36,000  Level Albuquerque Center
Thu 12:32:54 AM 33.4719 -112.9583 280° West 419 482 36,000  Level Albuquerque Center
Thu 12:33:55 AM 33.4889 -113.0969 278° West 422 486 36,000 -344 Level Albuquerque Center
Thu 12:34:56 AM 33.5061 -113.2319 279° West 417 480 35,300 -738 Descending Albuquerque Center
Thu 12:35:57 AM 33.5239 -113.3683 279° West 416 479 34,500 -639 Descending Albuquerque Center
Thu 12:36:58 AM 33.5411 -113.5061 279° West 419 482 34,000 -246 Descending Albuquerque Center
Thu 12:37:59 AM 33.5578 -113.6428 278° West 417 480 34,000  Level Albuquerque Center
Thu 12:38:59 AM 33.5747 -113.7792 279° West 416 479 34,000  Level Albuquerque Center
Thu 12:40:00 AM 33.5919 -113.9183 278° West 422 486 34,000  Level Albuquerque Center
Thu 12:41:01 AM 33.6092 -114.0639 278° West 422 486 34,000  Level Albuquerque Center
Thu 12:42:02 AM 33.6264 -114.2028 279° West 422 486 34,000  Level Albuquerque Center
Thu 12:43:02 AM 33.6425 -114.3353 278° West 423 487 34,000  Level Albuquerque Center
Thu 12:43:46 AM 33.6564 -114.4536 278° West 426 490 34,000  Level Los Angeles Center
Thu 12:44:47 AM 33.6728 -114.5939 278° West 426 490 34,000  Level Los Angeles Center
Thu 12:45:48 AM 33.6892 -114.7347 278° West 428 493 34,000  Level Los Angeles Center
Thu 12:46:51 AM 33.7047 -114.8761 278° West 428 493 34,000  Level Los Angeles Center
Thu 12:47:51 AM 33.7219 -115.0167 278° West 428 493 34,000  Level Los Angeles Center
Thu 12:48:52 AM 33.7361 -115.1581 277° West 428 493 34,000  Level Los Angeles Center
Thu 12:49:53 AM 33.7544 -115.3267 277° West 426 490 34,000 -738 Level Los Angeles Center
Thu 12:50:54 AM 33.7711 -115.4697 278° West 433 498 32,500 -1,623 Descending Los Angeles Center
Thu 12:51:55 AM 33.7864 -115.6119 277° West 432 497 30,700 -1,707 Descending Los Angeles Center
Thu 12:52:57 AM 33.8017 -115.7594 277° West 447 514 29,000 -2,000 Descending Los Angeles Center
Thu 12:53:58 AM 33.8178 -115.9097 277° West 455 524 26,600 -1,967 Descending Los Angeles Center
Thu 12:54:59 AM 33.8322 -116.0572 277° West 450 518 25,000 -1,525 Descending Los Angeles Center
Thu 12:56:00 AM 33.8467 -116.1986 277° West 435 501 23,500 -2,146 Descending Los Angeles Center
Thu 12:57:02 AM 33.8611 -116.3358 277° West 421 484 20,600 -2,976 Descending Los Angeles Center
Thu 12:58:03 AM 33.8742 -116.4739 277° West 419 482 17,400 -2,852 Descending Los Angeles Center
Thu 12:59:04 AM 33.8800 -116.6314 273° West 399 459 14,800 -1,659 Descending Los Angeles Center
Thu 01:00:06 AM 33.8858 -116.7606 273° West 391 450 14,000 -390 Descending Los Angeles Center
Thu 01:01:07 AM 33.8822 -116.8922 268° West 396 456 14,000  Level Los Angeles Center
Thu 01:02:08 AM 33.8617 -117.0228 259° West 399 459 14,000 -689 Level Los Angeles Center
Thu 01:03:09 AM 33.8439 -117.1442 260° West 393 452 12,600 -1,463 Descending Los Angeles Center
Thu 01:04:11 AM 33.8272 -117.2656 261° West 373 429 11,000 -1,610 Descending Los Angeles Center
Thu 01:05:12 AM 33.8092 -117.3881 260° West 309 356 9,300 -1,475 Descending Los Angeles Center
Thu 01:06:13 AM 33.7958 -117.4731 259° West 268 308 8,000 -738 Descending Los Angeles Center
Thu 01:07:14 AM 33.7856 -117.5528 261° West 245 282 7,800 -683 Descending Los Angeles Center
Thu 01:08:16 AM 33.7783 -117.6342 264° West 245 282 6,600 -825 Descending Los Angeles Center
Thu 01:08:34 AM 33.7667 -117.6667 247° West 236 272 6,700 83 Climbing Southern California TRACON
Thu 01:09:28 AM 33.7500 -117.7333 253° West 239 275 6,700 -650 Level Southern California TRACON
Thu 01:10:34 AM 33.7167 -117.8000 239° Southwest 247 284 5,400 -1,238 Descending Southern California TRACON
Thu 01:11:34 AM 33.6833 -117.8833 244° Southwest 252 290 4,100 -650 Descending Southern California TRACON
Thu 01:12:34 AM 33.6833 -117.9667 270° West 250 288 4,100 -150 Level Southern California TRACON
Thu 01:13:34 AM 33.7000 -118.0167 292° West 188 216 3,800 -850 Descending Southern California TRACON
Thu 01:14:34 AM 33.7500 -118.0667 320° Northwest 186 214 2,400 -1,240 Descending Southern California TRACON
Thu 01:15:35 AM 33.7667 -118.1000 301° West 156 180 1,300 -1,018 Descending Southern California TRACON
Thu 01:16:26 AM 33.7958 -118.1250 325° Northwest 159 183 500 -941 Descending Los Angeles Center
Thu 01:19:00 AM 33.8167 -118.1500 292° West  Level FlightAware Approximate

Login

Don't have an account? Register now (free) for customized features, flight alerts, and more!